Airport View

Enter AWOS ICAO identifier for current METAR.

ex. KFNL

KMGC 040600Z AUTO 02003KT 10SM -DZ BKN016 OVC022 17/17 A3001 RMK AO2

4 Aug 2020 06:05

Frequency: 128.450

Phone: 219-878-1106

Other Area AWOS: KPPO - KVPZ - KSBN - KOXI

TAF KSBN 040531Z 0406/0506 36006KT P6SM BKN080 FM040700 36006KT P6SM BKN020 FM041100 36008KT P6SM SCT025 FM041700 34011KT P6SM FEW050